• Join FlightAware (Why Join?)
  • Login
  • US Flag 
09:00AM EDT


 

Airport Tracker/Info


-or-


 

Live Flight TrackerFlight Track Log ✈ N4845J ✈ 30-Mar-2014 ✈ LGEE - KPSP

Flight Track Log - Related Links

Times and Time Zones

All times are in EDT time to prevent confusion due to time zone crossing. See the N4845J flight status page for this flight to view local times or setup timezone preferences in your user account.

Time Position Orientation Groundspeed Altitude Reporting Facility
EDT Latitude Longitude Course Direction KTS MPH feet Rate Location/Type
08:00PM 33.8167 -118.1667 360° North 79 91 900  Level Southern California TRACON
08:01PM 33.8333 -118.1667 360° North 88 101 1,400 540 Climbing Southern California TRACON
08:02PM 33.8500 -118.1333 59° Northeast 94 108 2,000 600 Climbing Southern California TRACON
08:04PM 33.8500 -118.1000 90° East 96 110 2,700 480 Climbing Southern California TRACON
08:05PM 33.8500 -118.0667 90° East 96 110 3,100 360 Climbing Southern California TRACON
08:05PM 33.8500 -118.0333 90° East 96 110 3,400 420 Climbing Southern California TRACON
08:06PM 33.8500 -118.0000 90° East 101 116 3,900 420 Climbing Southern California TRACON
08:08PM 33.8500 -117.9667 90° East 105 121 4,300 300 Climbing Southern California TRACON
08:09PM 33.8500 -117.9333 90° East 102 117 4,600 360 Climbing Southern California TRACON
08:10PM 33.8500 -117.9000 90° East 103 119 5,100 420 Climbing Southern California TRACON
08:11PM 33.8333 -117.8667 121° Southeast 102 117 5,500 300 Climbing Southern California TRACON
08:12PM 33.8333 -117.8333 90° East 103 119 5,800 300 Climbing Southern California TRACON
08:13PM 33.8333 -117.8000 90° East 105 121 6,200 300 Climbing Southern California TRACON
08:14PM 33.8333 -117.7500 90° East 106 122 6,500 240 Climbing Southern California TRACON
08:15PM 33.8333 -117.7167 90° East 109 125 6,800 300 Climbing Southern California TRACON
08:16PM 33.8333 -117.6833 90° East 111 128 7,100 180 Climbing Southern California TRACON
08:17PM 33.8333 -117.6500 90° East 109 125 7,200 60 Climbing Southern California TRACON
08:18PM 33.8333 -117.6167 90° East 107 123 7,300 120 Climbing Southern California TRACON
08:18PM 33.8328 -117.5983 92° East 108 124 7,400 120 Climbing Los Angeles Center
08:19PM 33.8283 -117.5597 98° East 111 128 7,500  Climbing Los Angeles Center
08:20PM 33.8175 -117.5072 104° East 130 150 7,400 -60 Descending Los Angeles Center
08:21PM 33.8092 -117.4675 104° East 129 148 7,400  Level Los Angeles Center
08:22PM 33.7986 -117.4311 109° East 121 139 7,400 60 Level Los Angeles Center
08:23PM 33.7906 -117.3925 104° East 118 136 7,600 60 Climbing Los Angeles Center
08:24PM 33.7836 -117.3511 101° East 122 140 7,600 -60 Level Los Angeles Center
08:25PM 33.7789 -117.3075 97° East 127 146 7,500 -60 Descending Los Angeles Center
08:27PM 33.7700 -117.2669 105° East 127 146 7,500  Level Los Angeles Center
08:28PM 33.7647 -117.2197 98° East 120 138 7,500  Level Los Angeles Center
08:29PM 33.7594 -117.1822 100° East 120 138 7,600  Climbing Los Angeles Center
08:30PM 33.7506 -117.1428 105° East 120 138 7,600 -60 Level Los Angeles Center
08:31PM 33.7447 -117.1033 100° East 120 138 7,500  Descending Los Angeles Center
08:32PM 33.7428 -117.0622 93° East 120 138 7,600 180 Climbing Los Angeles Center
08:33PM 33.7392 -117.0219 96° East 121 139 7,900 240 Climbing Los Angeles Center
08:34PM 33.7342 -116.9778 98° East 116 133 8,200 180 Climbing Los Angeles Center
08:35PM 33.7311 -116.9403 96° East 115 132 8,300 180 Climbing Los Angeles Center
08:36PM 33.7267 -116.9031 98° East 115 132 8,600 240 Climbing Los Angeles Center
08:37PM 33.7219 -116.8656 99° East 115 132 8,800 120 Climbing Los Angeles Center
08:38PM 33.7175 -116.8314 99° East 115 132 8,900 120 Climbing Los Angeles Center
08:39PM 33.7100 -116.7864 101° East 115 132 9,100 240 Climbing Los Angeles Center
08:40PM 33.7039 -116.7475 101° East 115 132 9,400  Climbing Los Angeles Center
08:41PM 33.6994 -116.7083 98° East 116 133 9,200 -60 Descending Los Angeles Center
08:42PM 33.6983 -116.6658 92° East 118 136 9,300 180 Climbing Los Angeles Center
08:43PM 33.7017 -116.6244 84° East 121 139 9,600 -120 Climbing Los Angeles Center
08:44PM 33.7103 -116.5831 76° East 124 143 9,100 -840 Descending Los Angeles Center
08:45PM 33.7200 -116.5419 74° East 124 143 7,900 -1,080 Descending Los Angeles Center
08:46PM 33.7356 -116.5086 61° Northeast 124 143 6,900 -1,140 Descending Los Angeles Center
08:48PM 33.7833 -116.5000 North 102 117 4,900 -1,140 Descending Southern California TRACON
08:49PM 33.8000 -116.5000 360° North 95 109 3,900 -960 Descending Southern California TRACON
08:50PM 33.8333 -116.5000 360° North 106 122 3,000 -840 Descending Southern California TRACON
08:51PM 33.8500 -116.5167 320° Northwest 75 86 2,300 -780 Descending Southern California TRACON
08:52PM 33.8500 -116.5167 320° Northwest 87 100 1,500 -840 Descending Southern California TRACON